LGAL/AXD METAR and TAF weather

Enter ICAO airport designator
Station Type Date Time Source
LGAL METAR 2022/05/26 05:20 UTC NOAA

LGAL 260520Z 00000KT CAVOK 20/14 Q1017


Station Type Date Time Source
LGAL Decoded METAR 2022/05/26 05:20 UTC NOAA

Alexandroupoli Airport , Greece (LGAL) 40-51N 025-55E 3M
May 26, 2022 - 01:20 AM EDT / 2022.05.26 0520 UTC
Wind: Calm:0
Visibility: greater than 7 mile(s):0
Temperature: 68 F (20 C)
Dew Point: 57 F (14 C)
Relative Humidity: 68%
Pressure (altimeter): 30.03 in. Hg (1017 hPa)
ob: LGAL 260520Z 00000KT CAVOK 20/14 Q1017
cycle: 5

Station Type Date Time Source
LGAL TAF 2012/09/21 03:06 UTC NOAA

TAF TAF LGAL 210200Z 2103/2115 03012G22KT 9999 FEW020 SCT070 PROB30
TEMPO 2103/2106 6000 RA SCT015 BKN030 PROB30

Example: see airport list